createdAt,value
2023-11-01T00:00:43.613Z,99.99
2023-11-01T00:01:43.578Z,99.99
2023-11-01T00:02:43.581Z,99.99
2023-11-01T00:03:43.618Z,99.99
2023-11-01T00:04:43.466Z,99.99
2023-11-01T00:05:43.462Z,99.99
2023-11-01T00:06:43.409Z,99.99
2023-11-01T00:07:43.377Z,99.99
2023-11-01T00:08:43.399Z,99.99
2023-11-01T00:09:43.318Z,99.99
2023-11-01T00:10:43.290Z,99.99
2023-11-01T00:11:43.313Z,99.99
2023-11-01T00:12:43.235Z,99.99
2023-11-01T00:13:43.201Z,99.99
2023-11-01T00:14:43.227Z,99.99
2023-11-01T00:15:43.140Z,99.99
2023-11-01T00:16:43.215Z,99.99
2023-11-01T00:17:43.135Z,99.99
2023-11-01T00:18:43.066Z,99.99
2023-11-01T00:19:43.023Z,99.99
2023-11-01T00:20:43.066Z,99.99
2023-11-01T00:21:42.965Z,99.99
2023-11-01T00:22:42.940Z,99.99
2023-11-01T00:23:42.934Z,99.99
2023-11-01T00:24:44.586Z,99.99
2023-11-01T00:25:42.851Z,99.99
2023-11-01T00:26:42.838Z,99.99
2023-11-01T00:27:42.789Z,99.99
2023-11-01T00:28:42.762Z,99.99
2023-11-01T00:29:42.782Z,99.99
2023-11-01T00:30:42.702Z,99.99
2023-11-01T00:31:42.676Z,99.99
2023-11-01T00:32:42.710Z,99.99
2023-11-01T00:33:42.637Z,99.99
2023-11-01T00:34:42.583Z,99.99
2023-11-01T00:35:42.594Z,99.99
2023-11-01T00:36:42.532Z,99.99
2023-11-01T00:37:42.497Z,99.99
2023-11-01T00:38:42.479Z,99.99
2023-11-01T00:39:42.440Z,99.99
2023-11-01T00:40:42.413Z,99.99
2023-11-01T00:41:42.394Z,99.99
2023-11-01T00:42:42.347Z,99.99
2023-11-01T00:43:42.317Z,99.99
2023-11-01T00:44:42.326Z,99.99
2023-11-01T00:45:42.257Z,99.99
2023-11-01T00:46:42.312Z,99.99
2023-11-01T00:47:42.372Z,99.99
2023-11-01T00:48:42.195Z,99.99
2023-11-01T00:49:42.140Z,99.99
2023-11-01T00:50:42.166Z,99.99
2023-11-01T00:51:42.083Z,99.99
2023-11-01T00:52:42.055Z,99.99
2023-11-01T00:53:42.103Z,99.99
2023-11-01T00:54:41.994Z,99.99
2023-11-01T00:55:41.966Z,99.99
2023-11-01T00:56:42.009Z,99.99
2023-11-01T00:57:41.913Z,99.99
2023-11-01T00:58:41.879Z,99.99
2023-11-01T00:59:41.875Z,99.99
2023-11-01T01:00:41.818Z,99.99
2023-11-01T01:01:41.788Z,99.99
2023-11-01T01:02:41.823Z,99.99
2023-11-01T01:03:41.810Z,99.99
2023-11-01T01:04:41.719Z,99.99
2023-11-01T01:05:41.736Z,99.99
2023-11-01T01:06:41.645Z,99.99
2023-11-01T01:07:41.614Z,99.99
2023-11-01T01:08:41.620Z,99.99
2023-11-01T01:09:41.559Z,99.99
2023-11-01T01:10:41.522Z,99.99
2023-11-01T01:11:41.505Z,99.99
2023-11-01T01:12:41.464Z,99.99
2023-11-01T01:13:41.435Z,99.99
2023-11-01T01:14:41.471Z,99.99
2023-11-01T01:15:41.395Z,99.99
2023-11-01T01:16:41.354Z,99.99
2023-11-01T01:17:41.369Z,99.99
2023-11-01T01:18:41.286Z,99.99
2023-11-01T01:19:41.264Z,99.99
2023-11-01T01:20:41.305Z,99.99
2023-11-01T01:21:41.204Z,99.99
2023-11-01T01:22:41.179Z,99.99
2023-11-01T01:23:41.169Z,99.99
2023-11-01T01:24:41.118Z,99.99
2023-11-01T01:25:41.088Z,99.99
2023-11-01T01:26:41.077Z,99.99
2023-11-01T01:27:41.018Z,99.99
2023-11-01T01:28:40.992Z,99.99
2023-11-01T01:29:41.008Z,99.99
2023-11-01T01:30:40.936Z,99.99
2023-11-01T01:31:40.944Z,99.99
2023-11-01T01:32:40.940Z,99.99
2023-11-01T01:33:40.841Z,99.99
2023-11-01T01:34:40.824Z,99.99
2023-11-01T01:35:40.802Z,99.99
2023-11-01T01:36:40.772Z,99.99
2023-11-01T01:37:40.725Z,99.99
2023-11-01T01:38:40.756Z,99.99
2023-11-01T01:39:40.675Z,99.99
2023-11-01T01:40:40.637Z,99.99
2023-11-01T01:41:40.629Z,99.99
2023-11-01T01:42:40.598Z,99.99
2023-11-01T01:43:40.734Z,99.99
2023-11-01T01:44:40.579Z,99.99
2023-11-01T01:45:40.499Z,99.99
2023-11-01T01:46:40.460Z,99.99
2023-11-01T01:47:40.503Z,99.99
2023-11-01T01:48:40.406Z,99.99
2023-11-01T01:49:45.434Z,99.99
2023-11-01T01:50:40.374Z,99.99
2023-11-01T01:51:40.312Z,99.99
2023-11-01T01:52:40.302Z,99.99
2023-11-01T01:53:40.329Z,99.99
2023-11-01T01:54:40.226Z,99.99
2023-11-01T01:55:40.194Z,99.99
2023-11-01T01:56:40.179Z,99.99
2023-11-01T01:57:40.146Z,99.99
2023-11-01T01:58:40.104Z,99.99
2023-11-01T01:59:40.229Z,99.99
2023-11-01T02:00:40.047Z,99.99
2023-11-01T02:01:44.960Z,99.99
2023-11-01T02:02:40.165Z,99.99
2023-11-01T02:03:40.082Z,99.99
2023-11-01T02:04:39.928Z,99.99
2023-11-01T02:05:39.937Z,99.99
2023-11-01T02:06:39.875Z,99.99
2023-11-01T02:07:39.837Z,99.99
2023-11-01T02:08:39.901Z,99.99
2023-11-01T02:09:39.779Z,99.99
2023-11-01T02:10:39.759Z,99.99
2023-11-01T02:11:39.730Z,99.99
2023-11-01T02:12:39.703Z,99.99
2023-11-01T02:13:39.662Z,99.99
2023-11-01T02:14:39.646Z,99.99
2023-11-01T02:15:39.616Z,99.99
2023-11-01T02:16:39.575Z,99.99
2023-11-01T02:17:39.601Z,99.99
2023-11-01T02:18:39.520Z,99.99
2023-11-01T02:19:39.483Z,99.99
2023-11-01T02:20:39.517Z,99.99
2023-11-01T02:21:39.423Z,99.99
2023-11-01T02:22:39.394Z,99.99
2023-11-01T02:23:39.401Z,99.99
2023-11-01T02:24:39.364Z,99.99
2023-11-01T02:25:39.308Z,99.99
2023-11-01T02:26:39.315Z,99.99
2023-11-01T02:27:39.243Z,99.99
2023-11-01T02:28:39.214Z,99.99
2023-11-01T02:29:39.254Z,99.99
2023-11-01T02:30:39.157Z,99.99
2023-11-01T02:31:40.764Z,99.99
2023-11-01T02:32:39.173Z,99.99
2023-11-01T02:33:39.067Z,99.99
2023-11-01T02:34:39.036Z,99.99
2023-11-01T02:35:39.036Z,99.99
2023-11-01T02:36:38.989Z,99.99
2023-11-01T02:37:38.959Z,99.99
2023-11-01T02:38:38.969Z,99.99
2023-11-01T02:39:38.891Z,99.99
2023-11-01T02:40:38.884Z,99.99
2023-11-01T02:41:38.845Z,99.99
2023-11-01T02:42:38.801Z,99.99
2023-11-01T02:43:38.770Z,99.99
2023-11-01T02:44:38.769Z,99.99
2023-11-01T02:45:38.724Z,99.99
2023-11-01T02:46:38.683Z,99.99
2023-11-01T02:47:38.697Z,99.99
2023-11-01T02:48:38.620Z,99.99
2023-11-01T02:49:38.591Z,99.99
2023-11-01T02:50:38.642Z,99.99
2023-11-01T02:51:38.540Z,99.99
2023-11-01T02:52:38.503Z,99.99
2023-11-01T02:53:38.500Z,99.99
2023-11-01T02:54:38.453Z,99.99
2023-11-01T02:55:38.442Z,99.99
2023-11-01T02:56:38.460Z,99.99
2023-11-01T02:57:38.358Z,99.99
2023-11-01T02:58:38.323Z,99.99
2023-11-01T02:59:38.341Z,99.99
2023-11-01T03:00:38.279Z,99.99
2023-11-01T03:01:38.302Z,99.99
2023-11-01T03:02:38.260Z,99.99
2023-11-01T03:03:38.197Z,99.99
2023-11-01T03:04:38.143Z,99.99
2023-11-01T03:05:38.139Z,99.99
2023-11-01T03:06:38.087Z,99.99
2023-11-01T03:07:38.095Z,99.99
2023-11-01T03:08:38.045Z,99.99
2023-11-01T03:09:37.995Z,99.99
2023-11-01T03:10:37.980Z,99.99
2023-11-01T03:11:37.970Z,99.99
2023-11-01T03:12:37.926Z,99.99
2023-11-01T03:13:37.876Z,99.99
2023-11-01T03:14:37.858Z,99.99
2023-11-01T03:15:37.817Z,99.99
2023-11-01T03:16:37.788Z,99.99
2023-11-01T03:17:37.999Z,99.99
2023-11-01T03:18:37.743Z,99.99
2023-11-01T03:19:37.697Z,99.99
2023-11-01T03:20:37.697Z,99.99
2023-11-01T03:21:37.639Z,99.99
2023-11-01T03:22:37.609Z,99.99
2023-11-01T03:23:37.638Z,99.99
2023-11-01T03:24:37.548Z,99.99
2023-11-01T03:25:37.520Z,99.99
2023-11-01T03:26:37.521Z,99.99
2023-11-01T03:27:37.472Z,99.99
2023-11-01T03:28:37.448Z,99.99
2023-11-01T03:29:37.430Z,99.99
2023-11-01T03:30:37.374Z,99.99
2023-11-01T03:31:37.340Z,99.99
2023-11-01T03:32:37.377Z,99.99
2023-11-01T03:33:37.329Z,99.99
2023-11-01T03:34:37.311Z,99.99
2023-11-01T03:35:37.243Z,99.99
2023-11-01T03:36:37.189Z,99.99
2023-11-01T03:37:37.177Z,99.99
2023-11-01T03:38:37.175Z,99.99
2023-11-01T03:39:37.100Z,99.99
2023-11-01T03:40:37.073Z,99.99
2023-11-01T03:41:37.059Z,99.99
2023-11-01T03:42:37.019Z,99.99
2023-11-01T03:43:37.008Z,99.99
2023-11-01T03:44:37.004Z,99.99
2023-11-01T03:45:36.933Z,99.99
2023-11-01T03:46:36.937Z,99.99
2023-11-01T03:47:36.979Z,99.99
2023-11-01T03:48:36.832Z,99.99
2023-11-01T03:49:36.847Z,99.99
2023-11-01T03:50:36.822Z,99.99
2023-11-01T03:51:36.752Z,99.99
2023-11-01T03:52:36.719Z,99.99
2023-11-01T03:53:36.703Z,99.99
2023-11-01T03:54:36.654Z,99.99
2023-11-01T03:55:36.630Z,99.99
2023-11-01T03:56:36.637Z,99.99
2023-11-01T03:57:36.566Z,99.99
2023-11-01T03:58:36.533Z,99.99
2023-11-01T03:59:36.526Z,99.99
2023-11-01T04:00:36.496Z,99.99
2023-11-01T04:01:36.465Z,99.99
2023-11-01T04:02:36.533Z,99.99
2023-11-01T04:03:36.455Z,99.99
2023-11-01T04:04:36.354Z,99.99
2023-11-01T04:05:36.351Z,99.99
2023-11-01T04:06:36.299Z,99.99
2023-11-01T04:07:36.283Z,99.99
2023-11-01T04:08:36.285Z,99.99
2023-11-01T04:09:36.216Z,99.99
2023-11-01T04:10:36.186Z,99.99
2023-11-01T04:11:36.189Z,99.99
2023-11-01T04:12:36.121Z,99.99
2023-11-01T04:13:36.084Z,99.99
2023-11-01T04:14:36.092Z,99.99
2023-11-01T04:15:36.026Z,99.99
2023-11-01T04:16:36.170Z,99.99
2023-11-01T04:17:36.037Z,99.99
2023-11-01T04:18:36.076Z,99.99
2023-11-01T04:19:35.950Z,99.99
2023-11-01T04:20:35.883Z,99.99
2023-11-01T04:21:35.853Z,99.99
2023-11-01T04:22:35.817Z,99.99
2023-11-01T04:23:35.914Z,99.99
2023-11-01T04:24:35.761Z,99.99
2023-11-01T04:25:35.728Z,99.99
2023-11-01T04:26:35.709Z,99.99
2023-11-01T04:27:35.668Z,99.99
2023-11-01T04:28:35.639Z,99.99
2023-11-01T04:29:35.633Z,99.99
2023-11-01T04:30:35.578Z,99.99
2023-11-01T04:31:35.590Z,99.99
2023-11-01T04:32:35.602Z,99.99
2023-11-01T04:33:35.526Z,99.99
2023-11-01T04:34:35.522Z,99.99
2023-11-01T04:35:35.460Z,99.99
2023-11-01T04:36:35.396Z,99.99
2023-11-01T04:37:35.369Z,99.99
2023-11-01T04:38:35.408Z,99.99
2023-11-01T04:39:35.306Z,99.99
2023-11-01T04:40:35.280Z,99.99
2023-11-01T04:41:35.250Z,99.99
2023-11-01T04:42:35.218Z,99.99
2023-11-01T04:43:35.187Z,99.99
2023-11-01T04:44:35.299Z,99.99
2023-11-01T04:45:35.127Z,99.99
2023-11-01T04:46:35.101Z,99.99
2023-11-01T04:47:35.119Z,99.99
2023-11-01T04:48:35.096Z,99.99
2023-11-01T04:49:35.010Z,99.99
2023-11-01T04:50:35.016Z,99.99
2023-11-01T04:51:34.966Z,99.99
2023-11-01T04:52:34.916Z,99.99
2023-11-01T04:53:34.887Z,99.99
2023-11-01T04:54:34.865Z,99.99
2023-11-01T04:55:34.833Z,99.99
2023-11-01T04:56:34.878Z,99.99
2023-11-01T04:57:34.769Z,99.99
2023-11-01T04:58:34.738Z,99.99
2023-11-01T04:59:34.843Z,99.99
2023-11-01T05:00:34.676Z,99.99
2023-11-01T05:01:34.730Z,99.99
2023-11-01T05:02:34.708Z,99.99
2023-11-01T05:03:34.648Z,99.99
2023-11-01T05:04:34.576Z,99.99
2023-11-01T05:05:34.567Z,99.99
2023-11-01T05:06:34.504Z,99.99
2023-11-01T05:07:34.536Z,99.99
2023-11-01T05:08:34.517Z,99.99
2023-11-01T05:09:34.406Z,99.99
2023-11-01T05:10:34.383Z,99.99
2023-11-01T05:11:34.365Z,99.99
2023-11-01T05:12:34.315Z,99.99
2023-11-01T05:13:34.313Z,99.99
2023-11-01T05:14:34.281Z,99.99
2023-11-01T05:15:34.224Z,99.99
2023-11-01T05:16:34.207Z,99.99
2023-11-01T05:17:34.256Z,99.99
2023-11-01T05:18:34.213Z,99.99
2023-11-01T05:19:34.105Z,99.99
2023-11-01T05:20:34.134Z,99.99
2023-11-01T05:21:34.045Z,99.99
2023-11-01T05:22:34.016Z,99.99
2023-11-01T05:23:34.023Z,99.99
2023-11-01T05:24:33.954Z,99.99
2023-11-01T05:25:33.933Z,99.99
2023-11-01T05:26:33.936Z,99.99
2023-11-01T05:27:33.940Z,99.99
2023-11-01T05:28:33.841Z,99.99
2023-11-01T05:29:33.823Z,99.99
2023-11-01T05:30:33.818Z,99.99
2023-11-01T05:31:33.742Z,99.99
2023-11-01T05:32:33.780Z,99.99
2023-11-01T05:33:33.715Z,99.99
2023-11-01T05:34:33.653Z,99.99
2023-11-01T05:35:33.638Z,99.99
2023-11-01T05:36:33.614Z,99.99
2023-11-01T05:37:33.563Z,99.99
2023-11-01T05:38:33.536Z,99.99
2023-11-01T05:39:33.502Z,99.99
2023-11-01T05:40:33.469Z,99.99
2023-11-01T05:41:33.464Z,99.99
2023-11-01T05:42:33.415Z,99.99
2023-11-01T05:43:33.392Z,99.99
2023-11-01T05:44:33.394Z,99.99
2023-11-01T05:45:33.326Z,99.99
2023-11-01T05:46:33.355Z,99.99
2023-11-01T05:47:33.346Z,99.99
2023-11-01T05:48:33.289Z,99.99
2023-11-01T05:49:33.206Z,99.99
2023-11-01T05:50:33.202Z,99.99
2023-11-01T05:51:33.143Z,99.99
2023-11-01T05:52:33.132Z,99.99
2023-11-01T05:53:33.135Z,99.99
2023-11-01T05:54:33.058Z,99.99
2023-11-01T05:55:42.600Z,99.99
2023-11-01T05:56:33.036Z,99.99
2023-11-01T05:57:32.963Z,99.99
2023-11-01T05:58:32.933Z,99.99
2023-11-01T05:59:32.945Z,99.99
2023-11-01T06:00:32.889Z,99.99
2023-11-01T06:01:32.853Z,99.99
2023-11-01T06:02:32.924Z,99.99
2023-11-01T06:03:33.023Z,99.99
2023-11-01T06:04:32.779Z,99.99
2023-11-01T06:05:32.744Z,99.99
2023-11-01T06:06:32.688Z,99.99
2023-11-01T06:07:32.664Z,99.99
2023-11-01T06:08:32.708Z,99.99
2023-11-01T06:09:32.596Z,99.99
2023-11-01T06:10:32.576Z,99.99
2023-11-01T06:11:32.587Z,99.99
2023-11-01T06:12:32.512Z,99.99
2023-11-01T06:13:32.479Z,99.99
2023-11-01T06:14:32.519Z,99.99
2023-11-01T06:15:32.432Z,99.99
2023-11-01T06:16:32.396Z,99.99
2023-11-01T06:17:32.504Z,99.99
2023-11-01T06:18:32.331Z,99.99
2023-11-01T06:19:32.297Z,99.99
2023-11-01T06:20:32.308Z,99.99
2023-11-01T06:21:32.240Z,99.99
2023-11-01T06:22:32.204Z,99.99
2023-11-01T06:23:32.278Z,99.99
2023-11-01T06:25:32.297Z,99.99
2023-11-01T06:26:32.229Z,99.99
2023-11-01T06:27:32.051Z,99.99
2023-11-01T06:28:32.024Z,99.99
2023-11-01T06:29:32.009Z,99.99
2023-11-01T06:30:31.973Z,99.99
2023-11-01T06:31:31.934Z,99.99
2023-11-01T06:32:32.030Z,99.99
2023-11-01T06:33:31.974Z,99.99
2023-11-01T06:34:31.885Z,99.99
2023-11-01T06:35:31.824Z,99.99
2023-11-01T06:36:31.783Z,99.99
2023-11-01T06:37:31.756Z,99.99
2023-11-01T06:38:31.748Z,99.99
2023-11-01T06:39:31.710Z,99.99
2023-11-01T06:40:31.659Z,99.99
2023-11-01T06:41:31.682Z,99.99
2023-11-01T06:42:31.614Z,99.99
2023-11-01T06:43:31.572Z,99.99
2023-11-01T06:44:31.611Z,99.99
2023-11-01T06:45:31.511Z,99.99
2023-11-01T06:46:31.511Z,99.99
2023-11-01T06:47:31.510Z,99.99
2023-11-01T06:48:31.480Z,99.99
2023-11-01T06:49:32.478Z,99.99
2023-11-01T06:50:31.364Z,99.99
2023-11-01T06:51:31.329Z,99.99
2023-11-01T06:52:31.314Z,99.99
2023-11-01T06:53:31.298Z,99.99
2023-11-01T06:54:31.239Z,99.99
2023-11-01T06:55:31.229Z,99.99
2023-11-01T06:56:31.228Z,99.99
2023-11-01T06:57:31.177Z,99.99
2023-11-01T06:58:31.121Z,99.99
2023-11-01T06:59:31.100Z,99.99
2023-11-01T07:00:31.066Z,99.99
2023-11-01T07:01:31.033Z,99.99
2023-11-01T07:02:31.065Z,99.99
2023-11-01T07:03:31.052Z,99.99
2023-11-01T07:04:30.998Z,99.99
2023-11-01T07:05:30.922Z,99.99
2023-11-01T07:06:30.883Z,99.99
2023-11-01T07:07:30.848Z,99.99
2023-11-01T07:08:30.849Z,99.99
2023-11-01T07:09:30.797Z,99.99
2023-11-01T07:10:30.762Z,99.99
2023-11-01T07:11:30.727Z,99.99
2023-11-01T07:12:30.705Z,99.99
2023-11-01T07:13:30.691Z,99.99
2023-11-01T07:14:30.655Z,99.99
2023-11-01T07:15:30.624Z,99.99
2023-11-01T07:16:30.577Z,99.99
2023-11-01T07:17:30.645Z,99.99
2023-11-01T07:18:30.546Z,99.99
2023-11-01T07:19:30.493Z,99.99
2023-11-01T07:20:30.490Z,99.99
2023-11-01T07:21:30.435Z,99.99
2023-11-01T07:22:30.403Z,99.99
2023-11-01T07:23:30.457Z,99.99
2023-11-01T07:24:30.342Z,99.99
2023-11-01T07:25:30.308Z,99.99
2023-11-01T07:26:30.302Z,99.99
2023-11-01T07:27:30.252Z,99.99
2023-11-01T07:28:30.223Z,99.99
2023-11-01T07:29:30.229Z,99.99
2023-11-01T07:30:30.170Z,99.99
2023-11-01T07:31:30.156Z,99.99
2023-11-01T07:32:30.154Z,99.99
2023-11-01T07:33:30.142Z,99.99
2023-11-01T07:34:30.053Z,99.99
2023-11-01T07:35:30.078Z,99.99
2023-11-01T07:36:30.001Z,99.99
2023-11-01T07:37:29.962Z,99.99
2023-11-01T07:38:29.941Z,99.99
2023-11-01T07:39:29.904Z,99.99
2023-11-01T07:40:29.899Z,99.99
2023-11-01T07:41:29.867Z,99.99
2023-11-01T07:42:29.815Z,99.99
2023-11-01T07:43:29.786Z,99.99
2023-11-01T07:44:29.786Z,99.99
2023-11-01T07:45:29.766Z,99.99
2023-11-01T07:46:29.699Z,99.99
2023-11-01T07:47:29.729Z,99.99
2023-11-01T07:48:29.741Z,99.99
2023-11-01T07:49:29.613Z,99.99
2023-11-01T07:50:29.616Z,99.99
2023-11-01T07:51:29.553Z,99.99
2023-11-01T07:52:29.531Z,99.99
2023-11-01T07:53:29.521Z,99.99
2023-11-01T07:54:29.488Z,99.99
2023-11-01T07:55:29.438Z,99.99
2023-11-01T07:56:29.437Z,99.99
2023-11-01T07:57:29.380Z,99.99
2023-11-01T07:58:29.359Z,99.99
2023-11-01T07:59:29.422Z,99.99
2023-11-01T08:00:29.296Z,99.99
2023-11-01T08:01:29.327Z,99.99
2023-11-01T08:02:29.296Z,99.99
2023-11-01T08:03:29.308Z,99.99
2023-11-01T08:04:29.302Z,99.99
2023-11-01T08:05:29.232Z,99.99
2023-11-01T08:06:29.120Z,99.99
2023-11-01T08:07:29.088Z,99.99
2023-11-01T08:08:29.135Z,99.99
2023-11-01T08:09:29.031Z,99.99
2023-11-01T08:10:29.001Z,99.99
2023-11-01T08:11:28.992Z,99.99
2023-11-01T08:12:28.949Z,99.99
2023-11-01T08:13:28.913Z,99.99
2023-11-01T08:14:28.920Z,99.99
2023-11-01T08:15:28.857Z,99.99
2023-11-01T08:16:29.239Z,99.99
2023-11-01T08:17:28.921Z,99.99
2023-11-01T08:18:28.783Z,99.99
2023-11-01T08:19:28.737Z,99.99
2023-11-01T08:20:28.732Z,99.99
2023-11-01T08:21:28.682Z,99.99
2023-11-01T08:22:28.660Z,99.99
2023-11-01T08:23:28.638Z,99.99
2023-11-01T08:24:28.596Z,99.99
2023-11-01T08:25:28.567Z,99.99
2023-11-01T08:26:28.558Z,99.99
2023-11-01T08:27:28.512Z,99.99
2023-11-01T08:28:28.476Z,99.99
2023-11-01T08:29:28.466Z,99.99
2023-11-01T08:30:28.426Z,99.99
2023-11-01T08:31:28.423Z,99.99
2023-11-01T08:32:28.400Z,99.99
2023-11-01T08:33:28.430Z,99.99
2023-11-01T08:34:28.399Z,99.99
2023-11-01T08:35:28.329Z,99.99
2023-11-01T08:36:28.244Z,99.99
2023-11-01T08:37:28.220Z,99.99
2023-11-01T08:38:28.209Z,99.99
2023-11-01T08:39:28.166Z,99.99
2023-11-01T08:40:28.128Z,99.99
2023-11-01T08:41:28.107Z,99.99
2023-11-01T08:42:28.078Z,99.99
2023-11-01T08:43:28.042Z,99.99
2023-11-01T08:44:28.047Z,99.99
2023-11-01T08:45:27.993Z,99.99
2023-11-01T08:46:27.984Z,99.99
2023-11-01T08:47:28.005Z,99.99
2023-11-01T08:48:28.001Z,99.99
2023-11-01T08:49:27.892Z,99.99
2023-11-01T08:50:27.853Z,99.99
2023-11-01T08:51:27.814Z,99.99
2023-11-01T08:52:27.782Z,99.99
2023-11-01T08:53:29.438Z,99.99
2023-11-01T08:54:27.726Z,99.99
2023-11-01T08:55:27.698Z,99.99
2023-11-01T08:56:27.696Z,99.99
2023-11-01T08:57:27.646Z,99.99
2023-11-01T08:58:27.610Z,99.99
2023-11-01T08:59:27.594Z,99.99
2023-11-01T09:00:39.180Z,99.99
2023-11-01T09:01:27.600Z,99.99
2023-11-01T09:02:27.609Z,99.99
2023-11-01T09:03:27.556Z,99.99
2023-11-01T09:04:27.479Z,99.99
2023-11-01T09:05:27.487Z,99.99
2023-11-01T09:06:27.390Z,99.99
2023-11-01T09:07:27.362Z,99.91
2023-11-01T09:08:27.359Z,99.99
2023-11-01T09:09:27.300Z,99.99
2023-11-01T09:10:27.270Z,99.99
2023-11-01T09:11:27.250Z,99.99
2023-11-01T09:12:27.264Z,97.45
2023-11-01T09:13:27.190Z,99.60
2023-11-01T09:14:27.187Z,99.99
2023-11-01T09:15:27.128Z,99.99
2023-11-01T09:16:27.101Z,99.96
2023-11-01T09:17:27.174Z,99.99
2023-11-01T09:18:27.110Z,99.99
2023-11-01T09:19:27.017Z,99.99
2023-11-01T09:20:27.068Z,97.30
2023-11-01T09:21:26.977Z,98.28
2023-11-01T09:22:26.928Z,98.94
2023-11-01T09:23:26.925Z,99.99
2023-11-01T09:24:26.872Z,99.99
2023-11-01T09:25:26.907Z,98.24
2023-11-01T09:26:26.881Z,97.46
2023-11-01T09:27:26.790Z,97.25
2023-11-01T09:28:26.778Z,97.46
2023-11-01T09:29:26.742Z,97.66
2023-11-01T09:30:26.714Z,99.51
2023-11-01T09:31:26.675Z,97.52
2023-11-01T09:32:26.784Z,98.03
2023-11-01T09:33:26.725Z,97.41
2023-11-01T09:34:26.640Z,97.41
2023-11-01T09:35:26.698Z,99.11
2023-11-01T09:36:26.535Z,94.04
2023-11-01T09:37:26.526Z,96.39
2023-11-01T09:38:26.503Z,97.11
2023-11-01T09:39:26.473Z,95.67
2023-11-01T09:40:26.422Z,95.43
2023-11-01T09:41:26.415Z,94.60
2023-11-01T09:42:26.367Z,94.92
2023-11-01T09:43:26.338Z,97.63
2023-11-01T09:44:26.364Z,96.61
2023-11-01T09:45:26.324Z,96.46
2023-11-01T09:46:26.298Z,94.82
2023-11-01T09:47:26.325Z,92.11
2023-11-01T09:48:26.336Z,92.83
2023-11-01T09:49:26.185Z,93.85
2023-11-01T09:50:26.173Z,94.87
2023-11-01T09:51:26.138Z,96.92
2023-11-01T09:52:26.095Z,93.24
2023-11-01T09:53:26.159Z,93.13
2023-11-01T09:54:26.034Z,92.25
2023-11-01T09:55:26.015Z,92.62
2023-11-01T09:56:26.040Z,92.56
2023-11-01T09:57:25.960Z,94.30
2023-11-01T09:58:25.925Z,95.07
2023-11-01T09:59:25.961Z,94.15
2023-11-01T10:00:25.873Z,94.67
2023-11-01T10:01:25.864Z,93.03
2023-11-01T10:02:26.015Z,93.74
2023-11-01T10:03:25.860Z,92.72
2023-11-01T10:04:25.790Z,93.13
2023-11-01T10:05:25.845Z,95.85
2023-11-01T10:06:25.697Z,93.09
2023-11-01T10:07:25.679Z,93.50
2023-11-01T10:08:25.681Z,93.19
2023-11-01T10:09:25.644Z,93.60
2023-11-01T10:10:25.596Z,93.80
2023-11-01T10:11:25.890Z,91.15
2023-11-01T10:12:25.531Z,89.98
2023-11-01T10:13:25.509Z,89.82
2023-11-01T10:14:25.496Z,89.04
2023-11-01T10:15:25.489Z,91.29
2023-11-01T10:16:25.479Z,92.52
2023-11-01T10:17:25.418Z,92.68
2023-11-01T10:18:25.435Z,94.68
2023-11-01T10:19:25.342Z,91.20
2023-11-01T10:20:25.341Z,92.54
2023-11-01T10:21:25.288Z,93.10
2023-11-01T10:22:25.264Z,92.80
2023-11-01T10:23:25.249Z,88.51
2023-11-01T10:24:25.207Z,91.33
2023-11-01T10:25:26.751Z,91.33
2023-11-01T10:26:25.151Z,87.90
2023-11-01T10:27:25.124Z,88.96
2023-11-01T10:28:25.093Z,89.26
2023-11-01T10:29:25.083Z,93.21
2023-11-01T10:30:25.041Z,88.96
2023-11-01T10:31:25.774Z,89.37
2023-11-01T10:32:25.136Z,92.29
2023-11-01T10:33:25.261Z,93.31
2023-11-01T10:34:24.937Z,95.00
2023-11-01T10:35:25.086Z,94.38
2023-11-01T10:36:24.880Z,93.32
2023-11-01T10:37:26.943Z,92.20
2023-11-01T10:38:24.835Z,91.59
2023-11-01T10:39:24.801Z,91.14
2023-11-01T10:40:24.779Z,91.03
2023-11-01T10:41:24.850Z,88.08
2023-11-01T10:42:24.721Z,89.30
2023-11-01T10:43:24.699Z,90.63
2023-11-01T10:44:24.858Z,90.73
2023-11-01T10:45:24.636Z,92.26
2023-11-01T10:46:24.607Z,91.75
2023-11-01T10:47:24.594Z,91.30
2023-11-01T10:48:24.698Z,87.26
2023-11-01T10:49:24.528Z,89.10
2023-11-01T10:50:24.499Z,92.77
2023-11-01T10:51:24.474Z,90.63
2023-11-01T10:52:24.445Z,90.63
2023-11-01T10:53:24.428Z,84.82
2023-11-01T10:54:24.481Z,86.49
2023-11-01T10:55:24.367Z,87.82
2023-11-01T10:56:24.338Z,86.35
2023-11-01T10:57:24.336Z,86.63
2023-11-01T10:58:24.288Z,88.47
2023-11-01T10:59:24.258Z,89.45
2023-11-01T11:00:24.237Z,86.59
2023-11-01T11:01:24.205Z,88.37
2023-11-01T11:02:24.206Z,87.51
2023-11-01T11:03:24.303Z,88.63
2023-11-01T11:04:24.462Z,90.88
2023-11-01T11:05:24.097Z,84.69
2023-11-01T11:06:24.069Z,85.88
2023-11-01T11:07:24.955Z,85.84
2023-11-01T11:08:24.015Z,85.94
2023-11-01T11:09:24.558Z,87.26
2023-11-01T11:10:23.966Z,84.55
2023-11-01T11:11:23.937Z,86.18
2023-11-01T11:12:23.918Z,86.29
2023-11-01T11:13:23.906Z,87.30
2023-11-01T11:14:23.856Z,87.51
2023-11-01T11:15:23.829Z,87.61
2023-11-01T11:16:23.838Z,87.67
2023-11-01T11:17:23.775Z,85.53
2023-11-01T11:18:23.749Z,84.61
2023-11-01T11:19:23.721Z,84.31
2023-11-01T11:20:23.694Z,85.63
2023-11-01T11:21:23.669Z,88.55
2023-11-01T11:22:23.644Z,89.10
2023-11-01T11:23:23.621Z,89.16
2023-11-01T11:24:23.589Z,87.02
2023-11-01T11:25:23.566Z,88.96
2023-11-01T11:26:23.535Z,89.36
2023-11-01T11:27:23.509Z,89.87
2023-11-01T11:28:23.504Z,89.26
2023-11-01T11:29:23.478Z,90.63
2023-11-01T11:30:23.428Z,86.15
2023-11-01T11:31:23.412Z,86.86
2023-11-01T11:32:23.394Z,85.13
2023-11-01T11:33:23.452Z,85.74
2023-11-01T11:34:23.326Z,85.53
2023-11-01T11:35:23.293Z,85.28
2023-11-01T11:36:23.266Z,86.21
2023-11-01T11:37:23.241Z,86.30
2023-11-01T11:38:23.214Z,86.27
2023-11-01T11:39:23.190Z,87.29
2023-11-01T11:40:23.161Z,84.43
2023-11-01T11:41:23.153Z,84.74
2023-11-01T11:42:23.108Z,87.69
2023-11-01T11:43:23.086Z,85.05
2023-11-01T11:44:23.052Z,84.03
2023-11-01T11:45:23.048Z,82.70
2023-11-01T11:46:23.037Z,82.29
2023-11-01T11:47:22.974Z,84.03
2023-11-01T11:48:23.046Z,84.12
2023-11-01T11:49:22.919Z,84.03
2023-11-01T11:50:22.892Z,84.33
2023-11-01T11:51:22.866Z,85.86
2023-11-01T11:52:22.869Z,86.02
2023-11-01T11:53:24.441Z,85.82
2023-11-01T11:54:22.789Z,86.22
2023-11-01T11:55:22.762Z,86.13
2023-11-01T11:56:22.734Z,85.72
2023-11-01T11:57:22.706Z,85.06
2023-11-01T11:58:22.681Z,86.19
2023-11-01T11:59:22.667Z,85.78
2023-11-01T12:00:22.626Z,83.23
2023-11-01T12:01:22.654Z,84.05
2023-11-01T12:02:22.584Z,83.70
2023-11-01T12:03:22.625Z,84.11
2023-11-01T12:04:22.618Z,84.62
2023-11-01T12:05:22.493Z,84.72
2023-11-01T12:06:22.474Z,84.82
2023-11-01T12:07:22.609Z,84.82
2023-11-01T12:08:22.417Z,81.81
2023-11-01T12:09:22.395Z,81.81
2023-11-01T12:10:22.366Z,84.25
2023-11-01T12:11:22.335Z,83.58
2023-11-01T12:12:22.315Z,83.68
2023-11-01T12:13:22.286Z,83.42
2023-11-01T12:14:22.277Z,83.17
2023-11-01T12:15:22.234Z,84.09
2023-11-01T12:16:22.234Z,83.58
2023-11-01T12:17:22.196Z,85.47
2023-11-01T12:18:22.241Z,86.33
2023-11-01T12:19:22.123Z,87.30
2023-11-01T12:20:22.098Z,87.67
2023-11-01T12:21:22.071Z,86.69
2023-11-01T12:22:22.054Z,82.21
2023-11-01T12:23:22.020Z,82.62
2023-11-01T12:24:21.994Z,82.73
2023-11-01T12:25:21.970Z,83.09
2023-11-01T12:26:21.940Z,81.87
2023-11-01T12:27:21.912Z,83.09
2023-11-01T12:28:21.883Z,85.13
2023-11-01T12:29:21.859Z,81.87
2023-11-01T12:30:21.854Z,81.91
2023-11-01T12:31:21.840Z,81.91
2023-11-01T12:32:21.794Z,85.37
2023-11-01T12:33:21.931Z,83.95
2023-11-01T12:34:21.752Z,84.25
2023-11-01T12:35:21.705Z,81.77
2023-11-01T12:36:21.674Z,83.70
2023-11-01T12:37:21.654Z,84.72
2023-11-01T12:38:21.636Z,84.01
2023-11-01T12:39:21.595Z,82.59
2023-11-01T12:40:21.575Z,83.20
2023-11-01T12:41:21.544Z,83.76
2023-11-01T12:42:21.542Z,80.55
2023-11-01T12:43:21.493Z,81.16
2023-11-01T12:44:21.465Z,81.51
2023-11-01T12:45:21.583Z,82.01
2023-11-01T12:46:21.440Z,82.35
2023-11-01T12:47:21.384Z,83.48
2023-11-01T12:48:21.450Z,84.80
2023-11-01T12:49:21.351Z,83.21
2023-11-01T12:50:21.310Z,83.42
2023-11-01T12:51:21.283Z,84.20
2023-11-01T12:52:21.256Z,83.90
2023-11-01T12:53:21.226Z,85.22